Date,TemperatureHighF,TemperatureAvgF,TemperatureLowF,DewpointHighF,DewpointAvgF,DewpointLowF,HumidityHigh,HumidityAvg,HumidityLow,PressureMaxIn,PressureMinIn,WindSpeedMaxMPH,WindSpeedAvgMPH,GustSpeedMaxMPH,PrecipitationSumIn
2013-1-1,75.0,61.5,49.0,59.0,54.7,48.0,96,80,52,30.22,30.04,14,4,21,0.00
2013-1-2,78.0,64.6,52.0,65.0,58.6,51.0,97,82,56,30.07,29.97,10,4,18,0.00
2013-1-3,69.0,63.0,59.0,65.0,61.2,56.0,98,94,85,30.17,30.03,18,6,23,0.00
2013-1-4,60.0,58.6,56.0,58.0,56.5,54.0,95,92,90,30.27,30.14,17,11,23,0.00
2013-1-5,73.0,63.1,56.0,63.0,57.2,52.0,93,81,66,30.29,30.17,16,9,20,0.00
2013-1-6,78.0,66.5,61.0,67.0,63.1,60.0,97,89,67,30.22,30.05,10,4,18,0.00
2013-1-7,69.0,63.7,58.0,64.0,58.9,53.0,95,84,71,30.21,30.11,16,11,21,0.00
2013-1-8,77.0,69.5,64.0,68.0,64.6,62.0,96,85,69,30.22,30.12,8,5,12,0.00
2013-1-9,82.0,72.6,67.0,70.0,67.3,66.0,95,84,59,30.30,30.18,10,7,18,0.00
2013-1-10,81.0,70.5,61.0,69.0,64.4,58.0,97,82,53,30.31,30.20,13,6,22,0.00
2013-1-11,79.0,68.6,59.0,68.0,63.5,58.0,97,84,61,30.27,30.15,11,5,21,0.00
2013-1-12,81.0,68.6,58.0,67.0,62.0,57.0,97,81,51,30.19,30.07,8,4,31,0.00
2013-1-13,81.0,67.7,56.0,66.0,61.2,56.0,97,81,51,30.16,30.06,8,5,15,0.00
2013-1-14,79.0,67.9,56.0,65.0,61.6,55.0,97,82,56,30.19,30.10,10,4,16,0.00
2013-1-15,81.0,68.1,57.0,67.0,61.9,56.0,97,82,51,30.15,30.04,9,4,15,0.00
2013-1-16,80.0,67.5,57.0,65.0,59.5,56.0,97,78,46,30.10,29.99,8,4,16,0.00
2013-1-17,78.0,63.5,55.0,67.0,57.8,46.0,96,82,63,30.11,29.95,21,10,32,0.00
2013-1-18,63.0,55.0,43.0,58.0,49.1,37.0,93,80,69,30.28,30.10,26,14,37,0.00
2013-1-19,71.0,63.6,58.0,62.0,57.4,53.0,87,80,66,30.27,30.13,17,11,26,0.00
2013-1-20,71.0,63.7,60.0,63.0,59.2,55.0,93,85,73,30.17,30.03,13,9,19,0.00
2013-1-21,69.0,64.7,61.0,63.0,59.0,54.0,88,81,76,30.09,29.99,10,5,13,0.00
2013-1-22,63.0,59.7,51.0,57.0,46.7,39.0,79,62,49,30.28,30.06,18,12,26,0.00
2013-1-23,66.0,54.5,42.0,46.0,40.5,35.0,91,60,36,30.36,30.26,15,7,20,0.00
2013-1-24,69.0,54.8,38.0,53.0,45.6,36.0,96,73,43,30.33,30.22,8,4,11,0.00
2013-1-25,74.0,58.1,45.0,57.0,50.1,44.0,96,77,41,30.30,30.16,8,4,14,0.00
2013-1-26,72.0,58.1,43.0,55.0,49.6,42.0,95,75,47,30.28,30.15,8,4,13,0.00
2013-1-27,76.0,61.9,47.0,61.0,55.0,46.0,97,80,49,30.31,30.22,9,5,19,0.00
2013-1-28,76.0,67.9,62.0,64.0,62.5,60.0,93,83,65,30.33,30.23,11,6,19,0.00
2013-1-29,82.0,69.4,61.0,68.0,64.4,60.0,97,85,57,30.26,30.10,11,6,21,0.00
2013-1-30,82.0,69.7,59.0,65.0,61.8,58.0,97,78,49,30.12,29.90,19,10,71,0.00
2013-1-31,62.0,58.8,52.0,50.0,40.0,32.0,74,50,36,30.22,30.08,19,12,25,0.00
2013-2-1,65.0,54.5,43.0,45.0,35.0,27.0,72,50,24,30.35,30.22,18,10,24,0.00
2013-2-2,71.0,58.7,50.0,48.0,42.4,-99.9,75,57,36,30.30,30.14,13,7,17,0.00
2013-2-3,69.0,57.7,47.0,50.0,43.9,38.0,79,60,43,30.19,30.05,14,8,20,0.00
2013-2-4,70.0,54.8,38.0,50.0,38.7,-99.9,92,67,31,30.15,30.02,9,4,15,0.00
2013-2-5,74.0,56.3,37.0,54.0,46.8,36.0,96,73,42,30.11,29.99,8,4,12,0.00
2013-2-6,72.0,63.4,52.0,62.0,56.7,50.0,93,79,62,30.12,30.02,9,4,15,0.00
2013-2-7,80.0,69.7,60.0,63.0,60.1,56.0,93,73,49,30.08,29.86,15,8,23,0.00
2013-2-8,76.0,68.7,62.0,63.0,54.3,-99.9,91,74,51,30.08,29.86,15,8,19,0.00
2013-2-9,73.0,63.1,56.0,58.0,54.9,52.0,93,75,49,30.20,30.07,13,10,19,0.00
2013-2-10,77.0,64.5,57.0,58.0,55.0,52.0,88,72,50,30.26,30.16,12,7,21,0.00
2013-2-11,81.0,66.5,53.0,63.0,57.9,52.0,95,76,49,30.22,30.06,13,6,21,0.00
2013-2-12,83.0,70.3,57.0,66.0,61.5,55.0,96,76,46,30.11,29.92,13,6,21,0.00
2013-2-13,84.0,72.6,65.0,68.0,64.7,56.0,95,78,50,29.97,29.81,18,11,31,0.00
2013-2-14,66.0,62.2,59.0,61.0,58.4,57.0,95,87,73,30.03,29.93,19,6,24,0.00
2013-2-15,66.0,59.5,56.0,58.0,55.2,53.0,95,86,68,30.08,29.95,14,6,18,0.00
2013-2-16,67.0,58.5,49.0,55.0,46.3,37.0,89,65,41,30.09,29.90,23,12,36,0.00
2013-2-17,53.0,45.8,34.0,39.0,24.6,15.0,69,44,24,30.34,30.09,29,14,39,0.00
2013-2-18,67.0,50.8,30.0,46.0,37.2,26.0,89,62,41,30.36,30.22,12,7,23,0.00
2013-2-19,77.0,60.9,45.0,55.0,49.3,43.0,94,69,42,30.23,30.05,14,6,24,0.00
2013-2-20,72.0,62.6,52.0,63.0,56.5,50.0,95,81,65,30.13,30.00,12,6,16,0.00
2013-2-21,80.0,67.8,57.0,64.0,58.6,52.0,91,74,47,30.11,29.99,9,5,15,0.00
2013-2-22,84.0,71.0,57.0,68.0,63.7,55.0,96,79,50,30.09,29.97,14,7,22,0.00
2013-2-23,84.0,72.4,67.0,67.0,65.3,63.0,95,80,50,30.04,29.86,11,6,20,0.00
2013-2-24,79.0,69.8,64.0,69.0,66.1,62.0,96,88,66,29.96,29.87,12,6,17,0.00
2013-2-25,84.0,71.7,61.0,69.0,63.3,60.0,97,77,47,29.93,29.76,14,5,21,0.00
2013-2-26,78.0,70.7,64.0,70.0,66.8,61.0,94,87,71,29.88,29.74,20,9,32,0.00
2013-2-27,75.0,65.3,58.0,61.0,56.2,50.0,95,74,45,29.97,29.87,12,7,19,0.00
2013-2-28,73.0,61.8,52.0,52.0,49.3,45.0,89,65,42,30.00,29.87,15,9,29,0.00
2013-3-1,61.0,55.8,49.0,49.0,41.6,36.0,85,60,39,30.00,29.91,14,9,23,0.00
2013-3-2,57.0,51.7,37.0,43.0,36.3,31.0,84,56,36,30.04,29.95,22,13,36,0.00
2013-3-3,53.0,45.9,37.0,37.0,33.0,31.0,84,61,44,30.17,29.99,20,13,30,0.00
2013-3-4,63.0,46.8,30.0,37.0,30.1,25.0,89,57,25,30.24,30.12,13,5,18,0.00
2013-3-5,75.0,57.2,36.0,53.0,43.2,33.0,94,64,32,30.19,30.04,12,6,50,0.00
2013-3-6,66.0,58.8,50.0,60.0,42.2,28.0,93,58,23,30.14,29.94,23,13,32,0.00
2013-3-7,65.0,53.1,45.0,46.0,39.1,34.0,86,59,40,30.22,30.11,21,10,27,0.00
2013-3-8,72.0,56.3,39.0,49.0,43.5,37.0,95,67,29,30.23,30.11,9,4,14,0.00
2013-3-9,72.0,61.3,49.0,50.0,48.7,44.0,89,65,41,30.23,30.13,11,6,18,0.00
2013-3-10,77.0,65.7,56.0,55.0,52.4,50.0,85,64,41,30.20,30.07,12,8,26,0.00
2013-3-11,76.0,65.1,53.0,59.0,54.6,51.0,93,71,49,30.13,29.92,14,7,24,0.00
2013-3-12,70.0,65.2,58.0,66.0,60.7,54.0,95,85,74,30.02,29.88,13,9,22,0.00
2013-3-13,70.0,61.0,55.0,54.0,46.8,40.0,90,62,37,30.17,30.02,18,11,24,0.00
2013-3-14,65.0,56.4,49.0,48.0,38.0,30.0,76,52,28,30.26,30.15,22,12,26,0.00
2013-3-15,68.0,55.0,36.0,47.0,39.0,33.0,94,59,30,30.29,30.14,12,5,17,0.00
2013-3-16,77.0,58.7,39.0,49.0,42.2,37.0,94,60,27,30.20,30.04,8,4,14,0.00
2013-3-17,76.0,60.6,43.0,57.0,49.9,42.0,96,71,42,30.16,29.99,11,5,19,0.00
2013-3-18,77.0,68.4,60.0,65.0,60.8,56.0,93,77,58,30.06,29.89,16,7,25,0.00
2013-3-19,83.0,70.3,59.0,65.0,62.4,58.0,96,77,47,29.99,29.87,9,4,19,0.00
2013-3-20,74.0,68.2,61.0,66.0,62.0,56.0,92,80,60,29.96,29.79,15,6,29,0.00
2013-3-21,69.0,60.4,55.0,58.0,42.4,32.0,91,55,28,29.97,29.85,18,10,23,0.00
2013-3-22,77.0,61.1,42.0,63.0,49.5,37.0,93,68,35,30.02,29.89,12,6,21,0.00
2013-3-23,86.0,72.0,61.0,70.0,64.7,59.0,96,79,51,29.99,29.75,16,7,27,0.00
2013-3-24,81.0,71.6,65.0,71.0,66.9,62.0,94,85,63,29.87,29.63,28,9,41,0.00
2013-3-25,72.0,64.6,53.0,68.0,48.4,28.0,93,60,24,30.03,29.72,19,10,28,0.00
2013-3-26,58.0,53.7,49.0,45.0,34.6,28.0,70,49,32,30.23,30.02,27,16,35,0.00
2013-3-27,61.0,51.8,45.0,41.0,34.1,30.0,67,52,35,30.31,30.20,19,12,26,0.00
2013-3-28,68.0,54.8,38.0,45.0,37.6,27.0,92,58,22,30.30,30.19,12,5,16,0.00
2013-3-29,71.0,59.7,45.0,49.0,41.8,35.0,86,55,28,30.33,30.19,9,5,15,0.00
2013-3-30,77.0,61.5,43.0,52.0,46.5,39.0,94,62,33,30.27,30.11,9,5,21,0.00
2013-3-31,81.0,67.6,55.0,55.0,51.2,-99.9,86,60,35,30.19,29.99,14,6,22,0.00
2013-4-1,82.0,70.0,57.0,65.0,59.3,54.0,93,70,45,30.04,29.91,15,7,26,0.00
2013-4-2,81.0,69.0,56.0,62.0,59.2,54.0,96,73,44,30.09,29.99,10,5,17,0.00
2013-4-3,85.0,71.6,58.0,67.0,61.6,55.0,92,72,45,30.09,29.94,14,7,32,0.00
2013-4-4,70.0,68.4,65.0,68.0,65.5,62.0,94,90,80,30.04,29.87,24,10,36,0.00
2013-4-5,73.0,67.3,61.0,66.0,61.6,56.0,93,82,56,29.97,29.80,18,9,23,0.00
2013-4-6,74.0,64.1,57.0,58.0,55.1,52.0,90,73,52,30.13,29.97,18,13,26,0.00
2013-4-7,78.0,68.2,59.0,61.0,58.0,55.0,93,72,46,30.15,30.06,11,6,19,0.00
2013-4-8,80.0,68.7,56.0,63.0,58.1,54.0,95,71,46,30.14,30.04,10,4,17,0.00
2013-4-9,81.0,69.6,59.0,66.0,59.7,55.0,95,73,49,30.16,30.07,13,6,21,0.00
2013-4-10,86.0,71.7,59.0,68.0,62.5,57.0,95,75,43,30.14,29.97,11,6,19,0.00
2013-4-11,88.0,76.5,66.0,70.0,67.7,65.0,95,76,50,30.01,29.82,16,10,29,0.00
2013-4-12,85.0,76.5,71.0,72.0,69.2,66.0,94,78,55,29.91,29.80,24,10,37,0.00
2013-4-13,84.0,74.8,68.0,69.0,66.4,61.0,93,76,53,29.98,29.87,9,5,15,0.00
2013-4-14,87.0,74.2,67.0,72.0,67.2,62.0,89,79,56,29.99,29.81,29,7,44,0.00
2013-4-15,84.0,72.7,63.0,68.0,64.3,60.0,92,75,54,30.07,29.93,15,6,36,0.00
2013-4-16,83.0,74.6,67.0,71.0,66.9,64.0,93,77,58,30.15,30.04,13,8,21,0.00
2013-4-17,82.0,72.8,65.0,67.0,64.4,62.0,95,76,53,30.15,30.02,13,7,20,0.00
2013-4-18,86.0,74.5,63.0,70.0,65.4,62.0,95,75,48,30.08,29.94,11,6,20,0.00
2013-4-19,89.0,76.8,68.0,72.0,68.3,65.0,95,77,47,30.02,29.89,17,9,26,0.00
2013-4-20,73.0,68.9,61.0,69.0,64.1,57.0,94,84,73,30.13,29.96,18,10,25,0.00
2013-4-21,78.0,68.9,62.0,71.0,65.0,57.0,95,87,70,30.15,30.00,16,10,22,0.00
2013-4-22,77.0,70.1,67.0,69.0,66.1,64.0,96,87,69,30.08,29.96,23,10,30,0.00
2013-4-23,78.0,70.2,64.0,64.0,62.0,59.0,93,76,52,30.11,30.01,16,12,23,0.00
2013-4-24,83.0,70.4,58.0,64.0,60.4,56.0,95,73,48,30.14,30.04,9,5,16,0.00
2013-4-25,84.0,71.0,56.0,65.0,60.0,55.0,95,71,39,30.21,30.09,9,4,17,0.00
2013-4-26,84.0,71.9,60.0,67.0,62.2,58.0,95,73,49,30.23,30.14,13,5,20,0.00
2013-4-27,81.0,72.4,65.0,67.0,64.3,62.0,93,76,53,30.23,30.09,18,8,27,0.00
2013-4-28,84.0,72.4,61.0,64.0,59.9,-99.9,94,70,43,30.14,29.98,12,7,25,0.00
2013-4-29,85.0,72.0,62.0,66.0,62.7,59.0,93,74,48,30.04,29.88,11,6,28,0.00
2013-4-30,84.0,72.4,66.0,69.0,66.4,63.0,93,82,51,30.01,29.89,14,5,23,0.00
2013-5-1,76.0,69.8,66.0,70.0,67.0,64.0,96,91,78,30.01,29.94,11,5,50,0.00
2013-5-2,77.0,68.5,64.0,70.0,65.4,62.0,94,89,78,29.97,29.82,11,5,20,0.00
2013-5-3,79.0,70.8,64.0,68.0,66.2,63.0,95,86,66,29.84,29.67,18,9,24,0.00
2013-5-4,81.0,71.9,66.0,67.0,65.4,64.0,95,81,55,29.79,29.65,11,6,47,0.00
2013-5-5,76.0,68.7,63.0,65.0,54.2,45.0,91,63,37,29.94,29.74,22,11,29,0.00
2013-5-6,77.0,66.7,55.0,60.0,54.3,51.0,91,66,43,30.01,29.89,12,8,25,0.00
2013-5-7,78.0,65.5,52.0,58.0,53.6,50.0,92,67,45,30.05,29.94,12,7,20,0.00
2013-5-8,80.0,68.8,54.0,61.0,56.5,52.0,95,67,43,30.13,30.02,10,6,19,0.00
2013-5-9,81.0,70.1,55.0,64.0,60.3,53.0,95,72,42,30.15,30.07,8,5,12,0.00
2013-5-10,87.0,73.3,62.0,70.0,63.7,-99.9,95,76,50,30.13,29.97,11,6,19,0.00
2013-5-11,87.0,75.4,65.0,72.0,67.2,63.0,94,76,49,30.06,29.94,15,6,24,0.00
2013-5-12,87.0,75.7,67.0,72.0,66.2,-99.9,96,76,51,30.03,29.91,15,6,43,0.00
2013-5-13,80.0,72.8,66.0,66.0,61.4,55.0,93,69,42,30.12,29.99,13,8,19,0.00
2013-5-14,80.0,71.0,63.0,59.0,54.9,49.0,77,58,33,30.20,30.10,12,8,45,0.00
2013-5-15,82.0,69.7,56.0,62.0,56.6,53.0,95,66,37,30.21,30.08,10,4,18,0.00
2013-5-16,83.0,64.9,58.0,63.0,37.1,-99.9,94,69,42,30.12,30.00,10,5,18,0.00
2013-5-17,84.0,71.5,59.0,66.0,55.6,-99.9,93,72,49,30.09,30.02,10,5,17,0.00
2013-5-18,89.0,75.7,64.0,70.0,66.5,62.0,95,75,45,30.10,29.98,12,5,20,0.00
2013-5-19,87.0,76.0,68.0,71.0,68.1,66.0,93,77,51,30.09,29.98,14,6,23,0.00
2013-5-20,86.0,74.9,67.0,71.0,67.0,63.0,94,78,49,30.09,29.96,18,5,29,0.00
2013-5-21,83.0,71.6,65.0,70.0,67.5,64.0,95,87,57,30.04,29.94,14,4,49,0.00
2013-5-22,84.0,73.2,65.0,71.0,68.0,64.0,95,84,61,29.97,29.89,13,4,23,0.00
2013-5-23,87.0,75.9,67.0,72.0,67.9,65.0,96,78,50,29.99,29.90,12,4,31,0.00
2013-5-24,90.0,78.2,70.0,73.0,67.4,62.0,92,71,40,30.07,29.95,14,6,32,0.00
2013-5-25,83.0,75.7,68.0,68.0,64.1,59.0,92,68,44,30.19,30.07,16,8,25,0.00
2013-5-26,82.0,71.3,59.0,61.0,58.7,55.0,91,66,41,30.21,30.12,44,6,166,0.00
2013-5-27,84.0,72.6,60.0,65.0,61.5,58.0,93,70,45,30.18,30.08,44,7,166,0.00
2013-5-28,84.0,74.2,67.0,72.0,67.7,64.0,91,80,61,30.15,30.05,14,7,24,0.00
2013-5-29,83.0,74.2,69.0,71.0,69.3,67.0,93,84,64,30.14,30.05,13,7,35,0.00
2013-5-30,82.0,75.6,71.0,72.0,69.3,66.0,94,81,59,30.11,30.02,17,8,28,0.00
2013-5-31,83.0,75.9,70.0,72.0,68.7,66.0,88,78,63,30.10,30.01,14,8,32,0.00
2013-6-1,85.0,77.1,71.0,72.0,70.1,68.0,92,79,61,30.07,29.93,13,7,23,0.00
2013-6-2,90.0,77.9,72.0,74.0,70.6,-99.9,95,82,51,30.01,29.86,15,4,26,0.00
2013-6-3,84.0,77.1,72.0,73.0,71.2,70.0,95,82,61,30.00,29.89,11,5,19,0.00
2013-6-4,81.0,75.9,72.0,71.0,70.0,69.0,93,82,65,30.03,29.94,15,5,30,0.00
2013-6-5,81.0,73.4,70.0,74.0,70.7,68.0,95,91,77,30.03,29.91,16,4,106,0.00
2013-6-6,78.0,73.8,72.0,75.0,71.6,68.0,96,92,85,29.92,29.68,20,11,36,0.00
2013-6-7,85.0,77.2,71.0,72.0,70.5,69.0,95,80,62,29.94,29.78,12,8,21,0.00
2013-6-8,86.0,75.4,71.0,74.0,70.9,69.0,95,86,64,30.09,29.93,15,4,30,0.00
2013-6-9,86.0,76.6,70.0,75.0,71.4,68.0,95,84,60,30.10,30.01,14,5,26,0.00
2013-6-10,89.0,78.5,72.0,75.0,72.2,70.0,95,81,58,30.09,29.99,13,5,20,0.00
2013-6-11,86.0,77.0,70.0,76.0,72.4,67.0,95,86,62,30.08,30.02,10,4,20,0.00
2013-6-12,91.0,77.8,67.0,73.0,69.7,65.0,95,77,47,30.07,29.96,11,3,17,0.00
2013-6-13,90.0,78.1,71.0,75.0,71.3,68.0,94,80,55,30.03,29.89,16,5,26,0.00
2013-6-14,89.0,79.7,72.0,74.0,70.7,68.0,95,75,52,29.94,29.82,11,6,19,0.00
2013-6-15,89.0,77.9,72.0,76.0,72.5,69.0,94,84,58,30.05,29.91,11,4,19,0.00
2013-6-16,88.0,80.3,74.0,75.0,73.3,71.0,93,79,61,30.08,29.98,11,5,21,0.00
2013-6-17,89.0,81.3,75.0,77.0,74.8,70.0,93,81,64,30.09,29.95,14,5,28,0.00
2013-6-18,91.0,79.3,69.0,75.0,71.4,67.0,95,78,51,30.09,29.93,13,5,28,0.00
2013-6-19,89.0,79.4,71.0,74.0,71.3,68.0,93,77,57,30.04,29.93,18,6,29,0.00
2013-6-20,89.0,78.5,72.0,75.0,71.5,70.0,93,80,55,30.07,29.98,13,4,23,0.00
2013-6-22,90.0,83.9,76.0,73.0,69.5,65.0,85,62,44,30.12,30.02,7,4,13,0.00
2013-6-23,86.0,76.6,72.0,75.0,71.8,69.0,94,85,63,30.14,30.06,16,4,22,0.00
2013-6-24,87.0,78.6,73.0,74.0,71.4,70.0,93,79,57,30.16,30.06,9,5,32,0.00
2013-6-25,89.0,78.8,71.0,74.0,70.6,67.0,94,77,49,30.15,30.02,10,4,17,0.00
2013-6-26,89.0,76.3,71.0,76.0,71.7,69.0,95,86,57,30.08,30.00,13,4,63,0.00
2013-6-27,90.0,78.5,69.0,74.0,70.9,68.0,96,79,52,30.05,29.91,13,4,21,0.00
2013-6-28,87.0,77.0,72.0,74.0,71.3,68.0,93,83,60,29.97,29.84,17,6,39,0.00
2013-6-29,86.0,77.2,73.0,75.0,72.6,70.0,94,86,61,29.90,29.79,12,7,23,0.00
2013-6-30,86.0,75.7,72.0,75.0,72.3,70.0,95,89,68,29.88,29.81,17,8,28,0.00
2013-7-1,83.0,73.9,71.0,74.0,70.9,68.0,95,90,75,30.03,29.87,16,8,28,0.00
2013-7-2,80.0,74.6,72.0,74.0,71.6,69.0,95,90,74,30.09,29.97,12,6,25,0.00
2013-7-3,85.0,76.1,71.0,76.0,72.3,69.0,96,88,72,30.12,30.04,13,6,22,0.00
2013-7-4,86.0,76.9,70.0,75.0,71.9,68.0,95,84,65,30.15,30.07,13,6,23,0.00
2013-7-5,87.0,78.2,74.0,76.0,72.6,70.0,94,83,58,30.15,30.04,15,6,27,0.00
2013-7-6,87.0,78.4,72.0,74.0,71.6,70.0,94,80,59,30.12,30.02,13,7,23,0.00
2013-7-7,87.0,79.5,73.0,74.0,71.8,70.0,92,77,57,30.13,30.02,12,6,22,0.00
2013-7-8,88.0,77.9,73.0,75.0,70.1,-99.9,94,80,54,30.16,30.05,10,5,18,0.00
2013-7-9,88.0,77.8,72.0,75.0,71.3,67.0,95,81,51,30.16,30.05,11,4,21,0.00
2013-7-10,87.0,76.2,72.0,73.0,67.6,-99.9,95,78,58,30.09,29.95,12,4,22,0.00
2013-7-11,89.0,76.3,71.0,74.0,71.2,69.0,94,84,56,30.04,29.92,21,5,33,0.00
2013-7-12,85.0,76.2,70.0,74.0,71.7,68.0,95,86,64,29.95,29.88,7,4,11,0.00
2013-7-13,86.0,75.7,70.0,73.0,71.2,68.0,95,86,61,30.00,29.91,14,4,23,0.00
2013-7-14,85.0,74.9,70.0,74.0,71.1,68.0,96,88,66,30.09,29.97,14,6,27,0.00
2013-7-15,84.0,74.5,70.0,74.0,70.9,68.0,95,89,63,30.10,30.01,14,5,22,0.00
2013-7-16,86.0,75.5,71.0,73.0,71.0,69.0,94,86,60,30.15,30.08,13,6,27,0.00
2013-7-17,85.0,77.2,71.0,75.0,71.9,68.0,94,84,60,30.14,30.07,12,7,25,0.00
2013-7-18,82.0,75.1,71.0,74.0,71.2,68.0,95,88,69,30.11,30.03,12,5,23,0.00
2013-7-19,87.0,76.0,70.0,76.0,71.5,68.0,96,86,63,30.12,30.00,9,5,31,0.00
2013-7-20,87.0,76.6,71.0,77.0,72.0,68.0,95,85,66,30.10,30.00,17,4,31,0.00
2013-7-21,90.0,77.2,72.0,77.0,72.2,69.0,94,85,57,30.11,29.99,16,5,24,0.00
2013-7-22,90.0,77.7,73.0,75.0,72.2,70.0,95,84,50,30.12,30.04,15,5,21,0.00
2013-7-23,84.0,77.1,73.0,76.0,72.1,70.0,96,85,67,30.09,29.94,11,6,20,0.00
2013-7-24,84.0,77.7,72.0,76.0,73.4,71.0,96,87,73,30.00,29.86,11,6,17,0.00
2013-7-25,84.0,77.9,74.0,76.0,73.9,72.0,94,87,72,29.97,29.87,13,6,25,0.00
2013-7-26,90.0,78.9,74.0,76.0,73.9,72.0,96,85,57,30.00,29.91,20,4,37,0.00
2013-7-27,89.0,79.2,73.0,76.0,73.7,69.0,96,84,61,29.99,29.89,13,4,22,0.00
2013-7-28,89.0,78.2,73.0,75.0,72.6,71.0,95,83,54,30.05,29.92,13,5,22,0.00
2013-7-29,88.0,78.8,73.0,76.0,73.4,71.0,95,84,59,30.13,30.02,12,4,69,0.00
2013-7-30,88.0,79.6,75.0,76.0,74.1,72.0,95,83,59,30.16,30.06,13,4,24,0.00
2013-7-31,89.0,79.8,75.0,77.0,73.7,69.0,95,82,61,30.13,29.99,13,4,23,0.00
2013-8-1,89.0,79.6,73.0,75.0,72.0,70.0,94,78,56,30.06,29.93,11,5,22,0.00
2013-8-2,90.0,79.3,72.0,75.0,71.9,70.0,95,79,50,30.02,29.93,10,4,16,0.00
2013-8-3,91.0,77.8,73.0,76.0,72.8,70.0,94,85,55,30.09,29.99,17,6,33,0.00
2013-8-4,87.0,78.9,74.0,77.0,74.0,71.0,96,85,61,30.09,29.97,9,5,26,0.00
2013-8-5,89.0,79.2,75.0,77.0,74.6,72.0,95,86,59,30.01,29.90,21,5,48,0.00
2013-8-6,90.0,79.7,73.0,77.0,73.9,71.0,96,83,55,29.98,29.86,10,3,17,0.00
2013-8-7,88.0,79.5,76.0,77.0,75.3,74.0,95,87,64,29.95,29.90,9,4,15,0.00
2013-8-8,90.0,81.2,74.0,77.0,73.6,71.0,96,78,56,30.03,29.92,10,6,18,0.00
2013-8-9,87.0,78.4,73.0,76.0,73.2,70.0,94,84,62,30.06,29.97,18,5,26,0.00
2013-8-10,91.0,81.3,72.0,77.0,72.8,70.0,95,76,54,30.10,30.01,10,5,44,0.00
2013-8-11,93.0,80.9,73.0,77.0,73.2,70.0,95,78,48,30.14,30.02,9,4,16,0.00
2013-8-14,92.0,77.0,73.0,77.0,69.5,-99.9,95,83,59,30.00,29.86,13,4,50,0.00
2013-8-15,87.0,73.1,73.0,75.0,60.9,-99.9,95,81,63,30.03,29.91,11,6,21,0.00
2013-8-16,89.0,78.6,76.0,76.0,69.7,-99.9,94,80,58,30.04,29.93,9,5,17,0.00
2013-8-17,90.0,80.0,74.0,78.0,75.0,70.0,94,85,61,30.07,29.97,9,4,18,0.00
2013-8-18,86.0,78.6,75.0,76.0,72.3,-99.9,95,83,69,30.08,29.98,12,5,74,0.00
2013-8-19,87.0,73.8,74.0,77.0,59.4,-99.9,96,86,65,30.08,29.96,13,4,20,0.00
2013-8-20,89.0,78.3,73.0,77.0,71.2,-99.9,95,82,59,30.08,29.98,10,4,17,0.00
2013-8-21,87.0,80.1,76.0,77.0,74.2,71.0,91,82,62,30.09,30.00,12,6,19,0.00
2013-8-22,88.0,78.6,75.0,77.0,74.4,73.0,94,87,65,30.08,29.98,13,6,18,0.00
2013-8-23,88.0,79.6,75.0,77.0,74.7,73.0,95,85,63,30.02,29.93,9,4,17,0.00
2013-8-24,87.0,77.2,73.0,77.0,73.3,70.0,96,88,60,30.09,29.99,21,4,35,0.00
2013-8-25,85.0,77.6,74.0,75.0,71.4,-99.9,95,83,68,30.14,30.05,11,6,21,0.00
2013-8-26,84.0,78.4,73.0,76.0,73.6,70.0,94,85,70,30.13,29.99,11,7,16,0.00
2013-8-27,87.0,77.2,72.0,73.0,71.2,68.0,94,83,54,30.06,29.97,10,6,18,0.00
2013-8-28,88.0,81.9,74.0,71.0,68.5,65.0,86,65,49,30.03,29.96,10,6,19,0.00
2013-8-29,89.0,78.2,72.0,73.0,70.5,67.0,93,78,49,30.03,29.90,8,4,15,0.00
2013-8-30,92.0,77.9,73.0,75.0,72.0,70.0,94,83,49,29.98,29.89,13,3,21,0.00
2013-8-31,91.0,78.0,71.0,75.0,71.2,69.0,96,81,50,29.97,29.85,9,5,46,0.00
2013-9-1,90.0,75.9,71.0,74.0,68.9,-99.9,95,82,53,30.00,29.87,12,4,23,0.00
2013-9-2,86.0,76.1,71.0,75.0,71.9,70.0,96,87,63,30.00,29.92,11,4,16,0.00
2013-9-3,85.0,75.7,71.0,76.0,72.5,70.0,95,90,71,30.00,29.91,11,4,43,0.00
2013-9-4,88.0,77.1,71.0,76.0,72.7,68.0,96,87,63,30.09,29.96,8,3,46,0.00
2013-9-5,88.0,78.6,73.0,77.0,72.1,68.0,90,81,64,30.07,29.97,9,4,37,0.00
2013-9-6,91.0,76.9,72.0,77.0,72.7,67.0,96,87,54,30.04,29.92,12,4,22,0.00
2013-9-7,85.0,76.6,72.0,75.0,72.1,69.0,96,86,59,30.01,29.90,13,6,20,0.00
2013-9-8,89.0,77.9,73.0,75.0,69.8,-99.9,93,79,52,29.96,29.84,11,7,17,0.00
2013-9-9,88.0,78.6,73.0,74.0,71.1,65.0,93,78,46,30.02,29.92,13,7,20,0.00
2013-9-10,87.0,79.3,74.0,73.0,70.4,65.0,93,75,49,30.07,29.98,13,8,23,0.00
2013-9-11,88.0,78.9,72.0,74.0,71.0,68.0,93,77,52,30.07,29.96,13,6,20,0.00
2013-9-12,85.0,76.1,73.0,75.0,72.3,69.0,95,88,60,30.02,29.90,9,3,17,0.00
2013-9-13,88.0,78.2,72.0,74.0,71.6,68.0,96,81,50,29.91,29.76,5,3,9,0.00
2013-9-14,90.0,79.5,73.0,75.0,72.9,71.0,96,81,54,29.96,29.83,11,4,21,0.00
2013-9-15,80.0,74.0,72.0,76.0,69.7,-99.9,95,89,86,30.06,29.96,8,4,16,0.00
2013-9-16,87.0,76.2,71.0,74.0,71.3,69.0,94,85,59,30.06,29.97,13,5,91,0.00
2013-9-17,84.0,77.7,73.0,74.0,71.8,70.0,94,82,61,30.03,29.93,14,7,24,0.00
2013-9-18,77.0,74.7,72.0,73.0,71.8,69.0,93,90,87,29.99,29.95,9,6,15,0.00
2013-9-19,86.0,78.1,72.0,74.0,70.8,69.0,95,79,55,30.03,29.94,14,8,43,0.00
2013-9-20,85.0,77.2,71.0,71.0,68.1,67.0,93,74,55,30.02,29.89,11,6,17,0.00
2013-9-21,87.0,75.7,68.0,72.0,69.0,67.0,95,81,53,29.94,29.74,7,3,11,0.00
2013-9-22,89.0,75.7,71.0,74.0,68.8,-99.9,95,82,56,29.84,29.73,12,6,23,0.00
2013-9-23,84.0,74.8,71.0,76.0,72.4,70.0,96,92,71,29.95,29.84,9,4,17,0.00
2013-9-24,81.0,75.8,73.0,74.0,72.6,71.0,96,90,74,29.96,29.84,11,5,18,0.00
2013-9-25,80.0,75.2,72.0,73.0,70.5,68.0,96,85,68,29.85,29.77,16,6,25,0.00
2013-9-26,88.0,78.0,72.0,76.0,67.8,-99.9,96,82,40,29.86,29.75,16,8,24,0.00
2013-9-27,81.0,74.6,71.0,72.0,69.7,68.0,93,84,71,29.95,29.84,17,10,44,0.00
2013-9-28,81.0,75.1,72.0,72.0,69.9,68.0,93,84,69,29.99,29.91,14,9,23,0.00
2013-9-29,86.0,75.8,70.0,71.0,66.3,-99.9,89,75,44,29.98,29.86,11,6,21,0.00
2013-9-30,85.0,76.0,68.0,71.0,68.5,66.0,97,78,52,30.01,29.88,8,4,15,0.00
2013-10-1,78.0,75.4,73.0,70.0,69.4,69.0,87,81,75,30.06,29.99,6,5,11,0.00
2013-10-2,85.0,76.9,71.0,71.0,69.0,68.0,92,77,58,30.05,29.96,12,7,19,0.00
2013-10-7,82.0,74.8,70.0,75.0,71.0,68.0,97,88,73,29.89,29.74,12,7,37,0.00
2013-10-8,85.0,76.8,73.0,74.0,72.2,70.0,96,86,59,29.92,29.78,16,7,23,0.00
2013-10-9,80.0,74.5,70.0,71.0,68.8,66.0,88,82,68,30.02,29.91,17,13,24,0.00
2013-10-10,83.0,73.8,68.0,68.0,66.1,65.0,90,77,54,30.04,29.94,13,8,17,0.00
2013-10-11,84.0,69.7,61.0,68.0,63.7,60.0,97,83,47,30.04,29.91,5,2,6,0.00
2013-10-12,83.0,72.3,63.0,68.0,63.8,60.0,96,77,47,30.03,29.94,9,4,14,0.00
2013-10-13,83.0,72.9,62.0,68.0,60.9,-99.9,97,70,42,30.07,29.96,8,4,14,0.00
2013-10-21,88.0,78.5,71.0,76.0,71.5,70.0,96,80,57,29.98,29.86,13,4,17,0.00
2013-10-22,87.0,78.2,71.0,72.0,71.0,68.0,97,79,58,29.94,29.78,12,6,18,0.00
2013-10-23,81.0,74.2,71.0,70.0,64.1,55.0,95,72,44,29.99,29.80,17,9,22,0.00
2013-10-24,72.0,67.5,64.0,59.0,54.9,49.0,76,63,54,30.16,29.99,19,12,34,0.00
2013-10-25,78.0,68.6,63.0,60.0,56.1,51.0,85,66,41,30.22,30.12,13,9,18,0.00
2013-10-26,77.0,68.4,62.0,60.0,55.9,48.0,84,66,38,30.20,30.07,13,8,18,0.00
2013-10-27,77.0,65.9,57.0,60.0,54.0,-99.9,94,69,41,30.13,30.03,13,7,17,0.00
2013-10-31,85.0,72.2,65.0,68.0,64.9,61.0,95,80,44,30.13,29.97,11,5,19,0.00
2013-11-1,87.0,73.9,64.0,72.0,66.5,63.0,97,80,48,30.00,29.83,18,6,28,0.00
2013-11-2,76.0,68.5,65.0,71.0,65.7,60.0,97,90,76,29.96,29.82,20,8,27,0.00
2013-11-3,74.0,67.0,61.0,61.0,43.3,-99.9,83,62,37,30.10,29.96,19,13,27,0.00
2013-11-4,76.0,68.1,63.0,65.0,59.3,55.0,93,73,52,30.15,30.08,19,12,31,0.00
2013-11-5,79.0,71.4,65.0,69.0,65.7,62.0,93,82,62,30.14,30.05,16,10,26,0.00
2013-11-6,79.0,72.2,69.0,69.0,66.6,65.0,92,83,64,30.11,30.00,12,7,17,0.00
2013-11-7,78.0,71.7,65.0,69.0,67.3,63.0,97,86,70,30.05,29.94,9,6,12,0.00
2013-11-8,76.0,69.3,65.0,67.0,63.7,60.0,95,82,66,30.11,29.98,22,12,29,0.00
2013-11-10,81.0,71.3,65.0,66.0,64.3,61.0,92,79,56,30.16,30.05,13,8,16,0.00
2013-11-11,81.0,71.0,66.0,66.0,64.2,63.0,93,80,54,30.15,30.04,12,8,17,0.00
2013-11-12,76.0,69.9,65.0,68.0,64.9,63.0,95,84,64,30.10,29.98,14,5,19,0.00
2013-11-13,68.0,62.4,57.0,63.0,54.2,51.0,82,74,66,30.30,30.06,27,19,39,0.00
2013-11-14,73.0,63.5,57.0,58.0,53.4,51.0,84,70,47,30.28,30.18,13,9,22,0.00
2013-11-15,76.0,67.1,59.0,64.0,60.1,55.0,87,78,56,30.18,30.06,8,4,14,0.00
2013-11-16,75.0,69.2,66.0,70.0,64.2,-99.9,93,86,75,30.12,30.02,12,6,41,0.00
2013-11-17,85.0,74.9,66.0,70.0,67.1,63.0,96,78,54,30.08,29.97,11,5,19,0.00
2013-11-18,84.0,72.4,65.0,70.0,67.1,63.0,97,84,55,30.03,29.91,9,4,11,0.00
2013-11-23,81.0,71.2,65.0,68.0,63.3,-99.9,93,79,55,30.11,29.97,9,4,15,0.00
2013-11-24,70.0,66.0,63.0,66.0,60.4,53.0,91,82,67,30.23,30.01,27,15,34,0.00
2013-11-25,71.0,66.5,63.0,62.0,55.7,52.0,86,68,55,30.23,30.09,15,10,25,0.00
2013-11-26,81.0,72.5,66.0,71.0,67.7,62.0,94,85,67,30.09,29.76,17,9,28,0.00
2013-11-27,73.0,64.1,48.0,71.0,57.8,40.0,94,80,62,30.19,29.70,23,14,30,0.00
2013-11-28,64.0,51.0,42.0,53.0,43.2,36.0,84,74,63,30.33,30.19,23,15,30,0.00
2013-11-29,67.0,59.7,54.0,58.0,53.5,50.0,89,80,66,30.34,30.25,23,15,30,0.00
2013-11-30,73.0,63.5,58.0,62.0,57.6,-99.9,93,83,65,30.30,30.17,17,12,27,0.00
2013-12-6,83.0,72.0,62.0,70.0,66.0,62.0,97,83,57,30.17,30.06,12,5,20,0.00
2013-12-7,82.0,69.3,61.0,68.0,61.4,-99.9,97,80,48,30.22,30.11,5,3,10,0.00
2013-12-8,82.0,72.3,63.0,69.0,65.1,63.0,97,79,54,30.22,30.08,10,5,17,0.00
2013-12-9,82.0,70.3,63.0,69.0,64.2,60.0,97,82,56,30.18,30.07,11,4,46,0.00
2013-12-10,82.0,69.7,59.0,69.0,62.7,59.0,97,80,50,30.16,30.04,12,5,18,0.00
2013-12-11,78.0,70.0,61.0,69.0,63.8,56.0,90,80,68,30.23,30.12,20,8,25,0.00
2013-12-12,68.0,64.0,61.0,64.0,50.0,-99.9,95,84,55,30.30,30.18,18,13,24,0.00
2013-12-13,72.0,64.1,55.0,56.0,47.4,-99.9,95,70,53,30.26,30.13,13,7,24,0.00
2013-12-17,68.0,58.8,51.0,59.0,51.0,45.0,83,75,64,30.24,30.12,13,9,65,0.00
2013-12-18,68.0,58.3,50.0,53.0,46.4,43.0,93,66,45,30.28,30.19,15,8,19,0.00
2013-12-19,74.0,61.4,44.0,57.0,51.3,40.0,92,70,49,30.27,30.16,9,5,15,0.00
2013-12-20,81.0,66.9,52.0,62.0,57.6,50.0,96,74,48,30.22,30.08,11,5,18,0.00
2013-12-21,84.0,69.3,59.0,69.0,63.1,-99.9,97,83,58,30.15,30.01,13,6,21,0.00
2013-12-22,82.0,70.7,63.0,71.0,65.7,62.0,97,85,59,30.14,30.05,14,6,26,0.00
2013-12-23,83.0,72.7,64.0,71.0,66.9,63.0,97,83,54,30.17,30.05,13,6,21,0.00
2013-12-24,69.0,63.2,55.0,68.0,54.3,38.0,97,74,44,30.25,30.09,22,13,30,0.00
2013-12-25,73.0,60.3,52.0,58.0,50.6,44.0,85,70,49,30.24,30.13,18,10,24,0.00
2013-12-26,73.0,62.9,58.0,63.0,58.7,56.0,96,87,69,30.21,30.07,16,9,23,0.00
2013-12-27,69.0,64.8,60.0,64.0,61.4,58.0,92,89,83,30.24,30.15,15,12,20,0.00
2013-12-28,76.0,68.1,64.0,69.0,62.9,-99.9,96,86,71,30.21,30.02,13,8,19,0.00
2013-12-29,77.0,71.0,64.0,72.0,68.1,62.0,95,90,79,30.02,29.87,14,8,22,0.00
2013-12-30,64.0,61.2,56.0,63.0,58.4,53.0,96,90,80,30.19,29.98,13,6,16,0.00
2013-12-31,66.0,60.9,57.0,54.0,52.1,49.0,88,73,57,30.29,30.17,15,10,20,0.00
2014-1-1,65.0,61.7,60.0,62.0,58.7,53.0,96,89,77,30.24,30.06,14,10,20,0.00
2014-1-2,80.0,68.0,61.0,69.0,64.4,60.0,97,89,64,30.07,29.80,17,8,33,0.00